»·PEaware :: N126ET KOTH-KBFI

N126ET :: KOTH-KBFI

FLIGHT INFORMATION

Flight Status: Arrived
Operator: Privately registered:
United States
More flights under this callsign
Pilot: Anonymous 13773 (13773)
Aircraft: ECLIPSE 500
(EA50)
More flights by this aircraft type
Origin: KOTH North Bend Mun
United States
Destination: KBFI Boeing Field/King Co Intl
United States
More flights between these airports :: More routes between these airports
Route: OTH6 OTH EUG J126 UBG OLM2
File this flight plan on PilotEdge
Remarks:
Altitude:
(Current/Filed)
23,000ft
Speed:
(Current/Filed)
350kts
Departed: 27-Mar-18 07:02 PM
Arrived: 27-Mar-18 08:12 PM
Distance/Time
Traveled:
260nm/1:10
Distance/Time
To Go:
Arrived

Flight Plot

Page will automatically refresh every two minutes.

Flight plan parsing failed; only flown route is shown


Map Options




Map Legend


Flown Route
Filed Route
Departure Airport
Arrival Airport
Navaid (VOR, NDB)
Fix

Horizontal Profiles

Position Reports

Time Latitude Longitude Heading Altitude Ground
Speed
27-Mar-18 18:27 43.415411 -124.245419 332 20ft 0kts
27-Mar-18 18:28 43.415411 -124.245419 332 20ft 0kts
27-Mar-18 18:29 43.415411 -124.245419 332 20ft 0kts
27-Mar-18 18:30 43.415411 -124.245419 332 20ft 0kts
27-Mar-18 18:31 43.415411 -124.245419 332 20ft 0kts
27-Mar-18 18:32 43.415411 -124.245419 332 20ft 0kts
27-Mar-18 18:33 43.415411 -124.245419 332 20ft 0kts
27-Mar-18 18:34 43.415411 -124.245419 332 20ft 0kts
27-Mar-18 18:35 43.415411 -124.245419 332 20ft 0kts
27-Mar-18 18:36 43.415411 -124.245419 332 20ft 0kts
27-Mar-18 18:37 43.415411 -124.245419 332 20ft 0kts
27-Mar-18 18:38 43.415411 -124.245419 332 20ft 0kts
27-Mar-18 18:39 43.415411 -124.245419 332 20ft 0kts
27-Mar-18 18:40 43.415411 -124.245419 332 20ft 0kts
27-Mar-18 18:41 43.415411 -124.245419 332 20ft 0kts
27-Mar-18 18:42 43.415411 -124.245419 332 20ft 0kts
27-Mar-18 18:43 43.415411 -124.245419 332 20ft 0kts
27-Mar-18 18:44 43.415411 -124.245419 332 20ft 0kts
27-Mar-18 18:45 43.415411 -124.245419 332 20ft 0kts
27-Mar-18 18:46 43.415411 -124.245419 332 20ft 0kts
27-Mar-18 18:47 43.415411 -124.245419 332 20ft 0kts
27-Mar-18 18:48 43.415411 -124.245419 332 20ft 0kts
27-Mar-18 18:49 43.415411 -124.245419 332 20ft 0kts
27-Mar-18 18:50 43.415411 -124.245419 332 20ft 0kts
27-Mar-18 18:51 43.415411 -124.245419 332 20ft 0kts
27-Mar-18 18:52 43.415411 -124.245419 332 20ft 0kts
27-Mar-18 18:53 43.415411 -124.245419 332 20ft 0kts
27-Mar-18 18:54 43.415443 -124.245442 332 20ft 3kts
27-Mar-18 18:55 43.415432 -124.244141 150 20ft 14kts
27-Mar-18 18:56 43.410994 -124.240603 150 20ft 18kts
27-Mar-18 18:57 43.408968 -124.238839 101 20ft 0kts
27-Mar-18 18:58 43.408968 -124.238839 101 20ft 0kts
27-Mar-18 18:59 43.408968 -124.238839 101 20ft 0kts
27-Mar-18 19:00 43.408968 -124.238839 101 20ft 0kts
27-Mar-18 19:01 43.414140 -124.241612 329 20ft 98kts
27-Mar-18 19:02 43.416644 -124.283592 283 1276ft 153kts
27-Mar-18 19:03 43.442440 -124.274423 96 1264ft 162kts
27-Mar-18 19:04 43.427292 -124.213185 105 3449ft 175kts
27-Mar-18 19:05 43.430862 -124.154212 40 5816ft 167kts
27-Mar-18 19:06 43.464006 -124.109485 37 8087ft 172kts
27-Mar-18 19:07 43.498782 -124.063252 36 10675ft 179kts
27-Mar-18 19:08 43.534730 -124.015406 35 13079ft 186kts
27-Mar-18 19:09 43.569445 -123.969131 34 15134ft 193kts
27-Mar-18 19:10 43.608259 -123.917283 34 17180ft 200kts
27-Mar-18 19:11 43.648431 -123.863512 33 19067ft 207kts
27-Mar-18 19:12 43.689985 -123.807774 33 20800ft 214kts
27-Mar-18 19:13 43.733027 -123.749913 33 22407ft 221kts
27-Mar-18 19:14 43.778086 -123.689358 34 23481ft 248kts
27-Mar-18 19:15 43.833016 -123.615348 36 23480ft 307kts
27-Mar-18 19:16 43.896386 -123.529400 37 23468ft 341kts
27-Mar-18 19:17 43.964822 -123.436261 37 23466ft 358kts
27-Mar-18 19:18 44.035161 -123.340251 38 23462ft 361kts
27-Mar-18 19:19 44.105157 -123.245116 33 23454ft 357kts
27-Mar-18 19:20 44.194266 -123.211588 4 23468ft 338kts
27-Mar-18 19:21 44.285535 -123.191487 3 23469ft 337kts
27-Mar-18 19:22 44.377407 -123.172942 3 23470ft 337kts
27-Mar-18 19:23 44.469150 -123.154791 2 23474ft 337kts
27-Mar-18 19:24 44.560467 -123.136771 2 23474ft 337kts
27-Mar-18 19:25 44.651834 -123.118708 2 23473ft 337kts
27-Mar-18 19:26 44.743737 -123.100486 2 23451ft 337kts
27-Mar-18 19:27 44.835108 -123.082312 2 23436ft 337kts
27-Mar-18 19:28 44.926788 -123.064020 2 23435ft 337kts
27-Mar-18 19:29 45.018351 -123.045592 1 23435ft 336kts
27-Mar-18 19:30 45.108538 -123.027411 0 23441ft 334kts
27-Mar-18 19:31 45.198913 -123.009310 359 23446ft 334kts
27-Mar-18 19:32 45.289624 -122.991029 359 23446ft 334kts
27-Mar-18 19:33 45.380545 -122.975764 353 23437ft 328kts
27-Mar-18 19:34 45.470394 -122.972488 353 23431ft 329kts
27-Mar-18 19:35 45.560140 -122.968569 353 23429ft 329kts
27-Mar-18 19:36 45.650379 -122.964458 353 23428ft 328kts
27-Mar-18 19:37 45.740403 -122.960301 353 23428ft 328kts
27-Mar-18 19:38 45.830575 -122.956109 353 23429ft 328kts
27-Mar-18 19:39 45.920929 -122.951888 353 23431ft 328kts
27-Mar-18 19:40 46.010414 -122.947706 353 23437ft 328kts
27-Mar-18 19:41 46.100036 -122.943490 353 23443ft 327kts
27-Mar-18 19:42 46.180416 -122.939705 353 23451ft 328kts
27-Mar-18 19:43 46.270363 -122.935456 353 23451ft 328kts
27-Mar-18 19:44 46.360503 -122.931185 353 23447ft 327kts
27-Mar-18 19:45 46.450149 -122.926922 353 23442ft 327kts
27-Mar-18 19:46 46.539949 -122.922632 353 23433ft 327kts
27-Mar-18 19:47 46.630079 -122.918319 353 23429ft 327kts
27-Mar-18 19:48 46.720140 -122.913992 353 23428ft 327kts
27-Mar-18 19:49 46.809336 -122.909620 353 21771ft 305kts
27-Mar-18 19:50 46.890510 -122.905734 353 19779ft 294kts
27-Mar-18 19:51 46.969904 -122.894913 19 17749ft 310kts
27-Mar-18 19:52 47.037178 -122.816372 30 15764ft 312kts
27-Mar-18 19:53 47.100837 -122.736714 32 13790ft 304kts
27-Mar-18 19:54 47.160111 -122.661222 32 13023ft 301kts
27-Mar-18 19:55 47.222303 -122.581404 32 13013ft 301kts
27-Mar-18 19:56 47.284191 -122.501770 31 13010ft 299kts
27-Mar-18 19:57 47.358223 -122.483767 354 12587ft 276kts
27-Mar-18 19:58 47.429260 -122.479357 354 11128ft 259kts
27-Mar-18 19:59 47.500510 -122.474852 355 9665ft 259kts
27-Mar-18 20:00 47.569981 -122.470972 352 8191ft 248kts
27-Mar-18 20:01 47.629388 -122.484624 304 6728ft 204kts
27-Mar-18 20:02 47.666270 -122.547817 305 5760ft 206kts
27-Mar-18 20:03 47.712846 -122.567670 50 4747ft 227kts
27-Mar-18 20:04 47.721758 -122.484955 123 3755ft 200kts
27-Mar-18 20:05 47.692291 -122.424128 164 2823ft 165kts
27-Mar-18 20:06 47.654873 -122.404060 160 2094ft 121kts
27-Mar-18 20:07 47.623496 -122.380766 155 1872ft 144kts
27-Mar-18 20:08 47.593442 -122.355972 155 1220ft 112kts
27-Mar-18 20:09 47.567323 -122.333994 156 660ft 105kts
27-Mar-18 20:10 47.543089 -122.313568 156 137ft 95kts
27-Mar-18 20:11 47.529990 -122.303076 206 23ft 2kts
27-Mar-18 20:12 47.528088 -122.302397 149 23ft 16kts
27-Mar-18 20:13 47.526364 -122.302037 246 23ft 0kts

Navigation Log

Ident Type
Flight plan parsing failed, navigation log unavailable